createdAt,value
2018-01-23T00:00:57.016Z,6.76
2018-01-23T00:01:56.937Z,6.70
2018-01-23T00:02:56.856Z,6.73
2018-01-23T00:03:56.778Z,6.62
2018-01-23T00:04:56.696Z,6.69
2018-01-23T00:05:56.616Z,6.68
2018-01-23T00:06:56.534Z,6.72
2018-01-23T00:07:56.455Z,6.72
2018-01-23T00:08:56.375Z,6.73
2018-01-23T00:09:56.297Z,6.73
2018-01-23T00:10:56.216Z,6.75
2018-01-23T00:11:56.136Z,6.69
2018-01-23T00:12:56.056Z,6.69
2018-01-23T00:13:55.977Z,6.66
2018-01-23T00:14:55.895Z,6.59
2018-01-23T00:15:55.817Z,6.55
2018-01-23T00:16:55.735Z,6.60
2018-01-23T00:17:55.655Z,6.66
2018-01-23T00:18:55.574Z,6.72
2018-01-23T00:19:55.494Z,6.66
2018-01-23T00:20:55.414Z,6.63
2018-01-23T00:21:55.334Z,6.73
2018-01-23T00:22:55.254Z,6.75
2018-01-23T00:23:55.174Z,6.88
2018-01-23T00:24:55.094Z,6.73
2018-01-23T00:25:55.013Z,6.72
2018-01-23T00:26:54.933Z,6.76
2018-01-23T00:27:54.852Z,6.73
2018-01-23T00:28:54.773Z,6.91
2018-01-23T00:29:54.692Z,6.88
2018-01-23T00:30:54.611Z,6.84
2018-01-23T00:31:54.531Z,6.75
2018-01-23T00:32:54.451Z,6.73
2018-01-23T00:33:54.371Z,6.76
2018-01-23T00:34:54.290Z,6.76
2018-01-23T00:35:54.209Z,6.70
2018-01-23T00:36:54.129Z,6.68
2018-01-23T00:37:54.049Z,6.68
2018-01-23T00:38:53.968Z,6.70
2018-01-23T00:39:53.888Z,6.69
2018-01-23T00:40:53.807Z,6.70
2018-01-23T00:41:53.727Z,6.66
2018-01-23T00:42:53.645Z,6.63
2018-01-23T00:43:53.572Z,6.63
2018-01-23T00:44:53.485Z,6.65
2018-01-23T00:45:53.406Z,6.66
2018-01-23T00:46:53.325Z,6.70
2018-01-23T00:47:53.245Z,6.70
2018-01-23T00:48:53.164Z,6.69
2018-01-23T00:49:53.085Z,6.69
2018-01-23T00:50:53.003Z,6.69
2018-01-23T00:51:52.923Z,6.68
2018-01-23T00:52:52.843Z,6.68
2018-01-23T00:53:52.763Z,6.66
2018-01-23T00:54:52.681Z,6.57
2018-01-23T00:55:52.601Z,6.51
2018-01-23T00:56:52.522Z,6.51
2018-01-23T00:57:52.442Z,6.54
2018-01-23T00:58:52.359Z,6.57
2018-01-23T00:59:52.282Z,6.50
2018-01-23T01:00:52.201Z,6.52
2018-01-23T01:01:52.121Z,6.51
2018-01-23T01:02:52.045Z,6.52
2018-01-23T01:03:51.960Z,6.55
2018-01-23T01:04:51.883Z,6.54
2018-01-23T01:05:51.800Z,6.54
2018-01-23T01:06:51.720Z,6.54
2018-01-23T01:07:51.640Z,6.51
2018-01-23T01:08:51.560Z,6.59
2018-01-23T01:09:51.479Z,6.51
2018-01-23T01:10:51.401Z,6.51
2018-01-23T01:11:51.319Z,6.51
2018-01-23T01:12:51.239Z,6.55
2018-01-23T01:13:51.159Z,6.57
2018-01-23T01:14:51.077Z,6.52
2018-01-23T01:15:50.998Z,6.55
2018-01-23T01:16:50.922Z,6.57
2018-01-23T01:17:50.838Z,6.50
2018-01-23T01:18:50.758Z,6.45
2018-01-23T01:19:50.678Z,6.50
2018-01-23T01:20:50.598Z,6.54
2018-01-23T01:21:50.518Z,6.62
2018-01-23T01:22:50.438Z,6.63
2018-01-23T01:23:50.357Z,6.63
2018-01-23T01:24:50.277Z,6.60
2018-01-23T01:25:50.197Z,6.54
2018-01-23T01:26:50.116Z,6.51
2018-01-23T01:27:50.039Z,6.51
2018-01-23T01:28:49.956Z,6.51
2018-01-23T01:29:49.877Z,6.47
2018-01-23T01:30:49.795Z,6.47
2018-01-23T01:31:49.716Z,6.47
2018-01-23T01:32:49.635Z,6.57
2018-01-23T01:33:49.556Z,6.54
2018-01-23T01:34:49.475Z,6.48
2018-01-23T01:35:49.394Z,6.59
2018-01-23T01:36:49.315Z,6.68
2018-01-23T01:37:49.235Z,6.48
2018-01-23T01:38:49.154Z,6.54
2018-01-23T01:39:49.080Z,6.63
2018-01-23T01:40:48.993Z,6.63
2018-01-23T01:41:48.914Z,6.80
2018-01-23T01:42:48.836Z,6.80
2018-01-23T01:43:48.752Z,6.70
2018-01-23T01:44:48.672Z,6.65
2018-01-23T01:45:48.592Z,6.68
2018-01-23T01:46:48.511Z,6.70
2018-01-23T01:47:48.431Z,6.66
2018-01-23T01:48:48.350Z,6.60
2018-01-23T01:49:48.270Z,6.62
2018-01-23T01:50:48.188Z,6.55
2018-01-23T01:51:48.112Z,6.55
2018-01-23T01:52:48.029Z,6.55
2018-01-23T01:53:47.951Z,6.54
2018-01-23T01:54:47.868Z,6.52
2018-01-23T01:55:47.788Z,6.57
2018-01-23T01:56:47.708Z,6.59
2018-01-23T01:57:47.627Z,6.52
2018-01-23T01:58:47.546Z,6.57
2018-01-23T01:59:47.469Z,6.47
2018-01-23T02:00:47.386Z,6.54
2018-01-23T02:01:47.305Z,6.50
2018-01-23T02:02:47.224Z,6.50
2018-01-23T02:03:47.144Z,6.50
2018-01-23T02:04:47.064Z,6.42
2018-01-23T02:05:46.984Z,6.45
2018-01-23T02:06:46.903Z,6.45
2018-01-23T02:07:46.822Z,6.36
2018-01-23T02:08:46.742Z,6.37
2018-01-23T02:09:46.662Z,6.39
2018-01-23T02:10:46.582Z,6.44
2018-01-23T02:11:46.500Z,6.33
2018-01-23T02:12:46.421Z,6.41
2018-01-23T02:13:46.341Z,6.30
2018-01-23T02:14:46.260Z,6.39
2018-01-23T02:15:46.180Z,6.29
2018-01-23T02:16:46.100Z,6.27
2018-01-23T02:17:46.019Z,6.30
2018-01-23T02:18:45.939Z,6.32
2018-01-23T02:19:45.858Z,6.30
2018-01-23T02:20:45.778Z,6.24
2018-01-23T02:21:45.698Z,6.36
2018-01-23T02:22:45.617Z,6.24
2018-01-23T02:23:45.537Z,6.11
2018-01-23T02:24:45.458Z,6.14
2018-01-23T02:25:45.377Z,6.17
2018-01-23T02:26:45.296Z,6.17
2018-01-23T02:27:45.366Z,6.17
2018-01-23T02:28:45.136Z,6.14
2018-01-23T02:29:45.058Z,6.07
2018-01-23T02:30:44.975Z,6.14
2018-01-23T02:31:44.896Z,6.11
2018-01-23T02:32:44.817Z,6.10
2018-01-23T02:33:44.737Z,6.18
2018-01-23T02:34:44.656Z,6.10
2018-01-23T02:35:44.577Z,6.07
2018-01-23T02:36:44.497Z,6.06
2018-01-23T02:37:44.417Z,6.08
2018-01-23T02:38:44.336Z,6.04
2018-01-23T02:39:44.257Z,5.99
2018-01-23T02:40:44.177Z,6.08
2018-01-23T02:41:44.098Z,6.08
2018-01-23T02:42:44.018Z,6.06
2018-01-23T02:43:43.938Z,6.08
2018-01-23T02:44:43.858Z,6.07
2018-01-23T02:45:43.778Z,6.27
2018-01-23T02:46:43.699Z,6.13
2018-01-23T02:47:43.619Z,6.32
2018-01-23T02:48:43.539Z,6.22
2018-01-23T02:49:43.461Z,6.36
2018-01-23T02:50:43.378Z,6.26
2018-01-23T02:51:43.299Z,6.33
2018-01-23T02:52:43.220Z,6.36
2018-01-23T02:53:43.140Z,6.32
2018-01-23T02:54:43.059Z,6.34
2018-01-23T02:55:42.980Z,6.24
2018-01-23T02:56:42.900Z,6.27
2018-01-23T02:57:42.853Z,6.29
2018-01-23T02:58:42.739Z,6.24
2018-01-23T02:59:42.660Z,6.15
2018-01-23T03:00:42.582Z,6.15
2018-01-23T03:01:42.500Z,6.32
2018-01-23T03:02:42.419Z,6.14
2018-01-23T03:03:42.341Z,6.24
2018-01-23T03:04:42.260Z,6.11
2018-01-23T03:05:42.181Z,6.08
2018-01-23T03:06:42.100Z,6.22
2018-01-23T03:07:42.021Z,6.21
2018-01-23T03:08:41.942Z,6.18
2018-01-23T03:09:41.861Z,6.22
2018-01-23T03:10:41.779Z,6.21
2018-01-23T03:11:41.700Z,6.14
2018-01-23T03:12:41.621Z,6.14
2018-01-23T03:13:41.541Z,6.11
2018-01-23T03:14:41.460Z,6.07
2018-01-23T03:15:41.381Z,6.10
2018-01-23T03:16:41.301Z,6.10
2018-01-23T03:17:41.222Z,6.07
2018-01-23T03:18:41.141Z,6.10
2018-01-23T03:19:41.062Z,6.03
2018-01-23T03:20:40.982Z,6.00
2018-01-23T03:21:40.902Z,6.07
2018-01-23T03:22:40.822Z,6.10
2018-01-23T03:23:40.743Z,6.08
2018-01-23T03:24:40.662Z,6.13
2018-01-23T03:25:40.583Z,6.06
2018-01-23T03:26:40.502Z,6.13
2018-01-23T03:27:40.422Z,6.04
2018-01-23T03:28:40.342Z,6.06
2018-01-23T03:29:40.264Z,6.14
2018-01-23T03:30:40.187Z,6.17
2018-01-23T03:31:40.104Z,6.22
2018-01-23T03:32:40.023Z,6.32
2018-01-23T03:33:39.944Z,6.29
2018-01-23T03:34:39.863Z,6.30
2018-01-23T03:35:39.783Z,6.26
2018-01-23T03:36:39.704Z,6.33
2018-01-23T03:37:39.624Z,6.27
2018-01-23T03:38:39.547Z,6.18
2018-01-23T03:39:39.463Z,6.15
2018-01-23T03:40:39.384Z,6.13
2018-01-23T03:41:39.305Z,6.14
2018-01-23T03:42:39.224Z,6.13
2018-01-23T03:43:39.144Z,6.15
2018-01-23T03:44:39.064Z,6.17
2018-01-23T03:45:38.984Z,6.15
2018-01-23T03:46:38.903Z,6.18
2018-01-23T03:47:38.823Z,6.10
2018-01-23T03:48:38.744Z,6.14
2018-01-23T03:49:38.664Z,6.10
2018-01-23T03:50:38.584Z,6.10
2018-01-23T03:51:38.504Z,6.13
2018-01-23T03:52:38.424Z,6.13
2018-01-23T03:53:38.345Z,6.13
2018-01-23T03:54:38.263Z,6.14
2018-01-23T03:55:38.183Z,6.06
2018-01-23T03:56:38.103Z,6.13
2018-01-23T03:57:38.024Z,6.21
2018-01-23T03:58:37.943Z,6.10
2018-01-23T03:59:37.863Z,6.08
2018-01-23T04:00:37.786Z,6.10
2018-01-23T04:01:37.703Z,6.13
2018-01-23T04:02:37.623Z,6.13
2018-01-23T04:03:37.544Z,6.15
2018-01-23T04:04:37.464Z,6.15
2018-01-23T04:05:37.385Z,6.17
2018-01-23T04:06:37.304Z,6.18
2018-01-23T04:07:37.225Z,6.32
2018-01-23T04:08:37.144Z,6.33
2018-01-23T04:09:37.065Z,6.17
2018-01-23T04:10:36.985Z,6.15
2018-01-23T04:11:36.904Z,6.22
2018-01-23T04:12:36.825Z,6.27
2018-01-23T04:13:36.745Z,6.34
2018-01-23T04:14:36.664Z,6.27
2018-01-23T04:15:36.584Z,6.24
2018-01-23T04:16:36.504Z,6.18
2018-01-23T04:17:36.424Z,6.22
2018-01-23T04:18:36.344Z,6.21
2018-01-23T04:19:36.264Z,6.13
2018-01-23T04:20:36.184Z,6.18
2018-01-23T04:21:36.104Z,6.32
2018-01-23T04:22:36.024Z,6.21
2018-01-23T04:23:35.944Z,6.33
2018-01-23T04:24:35.863Z,6.22
2018-01-23T04:25:35.784Z,6.22
2018-01-23T04:26:35.703Z,6.26
2018-01-23T04:27:35.623Z,6.13
2018-01-23T04:28:35.544Z,6.17
2018-01-23T04:29:35.463Z,6.18
2018-01-23T04:30:35.383Z,6.17
2018-01-23T04:31:35.303Z,6.17
2018-01-23T04:32:35.223Z,6.15
2018-01-23T04:33:35.145Z,6.22
2018-01-23T04:34:35.062Z,6.10
2018-01-23T04:35:34.983Z,6.13
2018-01-23T04:36:34.903Z,6.18
2018-01-23T04:37:34.822Z,6.17
2018-01-23T04:38:34.741Z,6.14
2018-01-23T04:39:34.661Z,6.15
2018-01-23T04:40:34.583Z,6.14
2018-01-23T04:41:34.502Z,6.21
2018-01-23T04:42:34.423Z,6.18
2018-01-23T04:43:34.342Z,6.13
2018-01-23T04:44:34.262Z,6.17
2018-01-23T04:45:34.182Z,6.13
2018-01-23T04:46:34.102Z,6.22
2018-01-23T04:47:34.021Z,6.22
2018-01-23T04:48:33.941Z,6.15
2018-01-23T04:49:33.862Z,6.32
2018-01-23T04:50:33.782Z,6.30
2018-01-23T04:51:33.702Z,6.14
2018-01-23T04:52:33.622Z,6.21
2018-01-23T04:53:33.543Z,6.21
2018-01-23T04:54:33.464Z,6.17
2018-01-23T04:55:33.382Z,6.30
2018-01-23T04:56:33.302Z,6.15
2018-01-23T04:57:33.223Z,6.30
2018-01-23T04:58:33.142Z,6.18
2018-01-23T04:59:33.063Z,6.22
2018-01-23T05:00:32.983Z,6.15
2018-01-23T05:01:32.904Z,6.21
2018-01-23T05:02:32.823Z,6.18
2018-01-23T05:03:32.743Z,6.21
2018-01-23T05:04:32.663Z,6.13
2018-01-23T05:05:32.584Z,6.08
2018-01-23T05:06:32.504Z,6.11
2018-01-23T05:07:32.423Z,6.08
2018-01-23T05:08:32.344Z,6.14
2018-01-23T05:09:32.265Z,6.17
2018-01-23T05:10:32.231Z,6.14
2018-01-23T05:11:32.105Z,6.10
2018-01-23T05:12:32.026Z,6.07
2018-01-23T05:13:31.945Z,6.13
2018-01-23T05:14:31.892Z,6.08
2018-01-23T05:15:31.785Z,6.13
2018-01-23T05:16:31.706Z,6.22
2018-01-23T05:17:31.627Z,6.14
2018-01-23T05:18:31.546Z,6.18
2018-01-23T05:19:31.466Z,6.29
2018-01-23T05:20:31.387Z,6.18
2018-01-23T05:21:31.309Z,6.15
2018-01-23T05:22:31.227Z,6.15
2018-01-23T05:23:31.147Z,6.17
2018-01-23T05:24:31.068Z,6.15
2018-01-23T05:25:30.988Z,6.26
2018-01-23T05:26:30.908Z,6.15
2018-01-23T05:27:30.828Z,6.15
2018-01-23T05:28:30.749Z,6.18
2018-01-23T05:29:30.669Z,6.11
2018-01-23T05:30:30.588Z,6.14
2018-01-23T05:31:30.510Z,6.08
2018-01-23T05:32:30.430Z,6.08
2018-01-23T05:33:30.350Z,6.10
2018-01-23T05:34:30.271Z,6.13
2018-01-23T05:35:30.190Z,6.07
2018-01-23T05:36:30.111Z,6.11
2018-01-23T05:37:30.032Z,6.13
2018-01-23T05:38:29.951Z,6.08
2018-01-23T05:39:29.871Z,6.13
2018-01-23T05:40:29.792Z,6.04
2018-01-23T05:41:29.712Z,6.08
2018-01-23T05:42:29.632Z,6.30
2018-01-23T05:43:29.552Z,6.27
2018-01-23T05:44:29.472Z,6.15
2018-01-23T05:45:29.392Z,6.15
2018-01-23T05:46:29.312Z,6.11
2018-01-23T05:47:29.233Z,6.10
2018-01-23T05:48:29.154Z,6.11
2018-01-23T05:49:29.075Z,6.13
2018-01-23T05:50:28.993Z,6.10
2018-01-23T05:51:28.914Z,6.18
2018-01-23T05:52:28.834Z,6.18
2018-01-23T05:53:28.755Z,6.34
2018-01-23T05:54:28.677Z,6.21
2018-01-23T05:55:28.595Z,6.14
2018-01-23T05:56:28.515Z,6.18
2018-01-23T05:57:28.436Z,6.17
2018-01-23T05:58:28.356Z,6.13
2018-01-23T05:59:28.277Z,6.11
2018-01-23T06:00:28.203Z,6.18
2018-01-23T06:01:28.117Z,6.13
2018-01-23T06:02:28.036Z,6.11
2018-01-23T06:03:27.956Z,6.14
2018-01-23T06:04:27.877Z,6.10
2018-01-23T06:05:27.799Z,6.13
2018-01-23T06:06:27.717Z,6.10
2018-01-23T06:07:27.638Z,6.13
2018-01-23T06:08:27.558Z,6.10
2018-01-23T06:09:27.479Z,6.13
2018-01-23T06:10:27.398Z,6.11
2018-01-23T06:11:27.318Z,6.18
2018-01-23T06:12:27.243Z,6.13
2018-01-23T06:13:27.159Z,6.24
2018-01-23T06:14:27.078Z,6.15
2018-01-23T06:15:27.005Z,6.18
2018-01-23T06:16:26.919Z,6.15
2018-01-23T06:17:26.839Z,6.18
2018-01-23T06:18:26.759Z,6.17
2018-01-23T06:19:26.679Z,6.11
2018-01-23T06:20:26.599Z,6.27
2018-01-23T06:21:26.520Z,6.29
2018-01-23T06:22:26.439Z,6.33
2018-01-23T06:23:26.360Z,6.30
2018-01-23T06:24:26.279Z,6.29
2018-01-23T06:25:26.200Z,6.21
2018-01-23T06:26:26.119Z,6.33
2018-01-23T06:27:26.040Z,6.22
2018-01-23T06:28:25.960Z,6.27
2018-01-23T06:29:25.879Z,6.17
2018-01-23T06:30:25.800Z,6.08
2018-01-23T06:31:25.719Z,6.11
2018-01-23T06:32:25.677Z,6.14
2018-01-23T06:33:25.561Z,6.08
2018-01-23T06:34:25.485Z,6.14
2018-01-23T06:35:25.400Z,6.15
2018-01-23T06:36:25.322Z,6.18
2018-01-23T06:37:25.241Z,6.26
2018-01-23T06:38:25.159Z,6.29
2018-01-23T06:39:25.079Z,6.34
2018-01-23T06:40:24.999Z,6.29
2018-01-23T06:41:24.920Z,6.32
2018-01-23T06:42:24.839Z,6.18
2018-01-23T06:43:24.761Z,6.18
2018-01-23T06:44:24.681Z,6.24
2018-01-23T06:45:24.601Z,6.17
2018-01-23T06:46:24.518Z,6.21
2018-01-23T06:47:24.439Z,6.22
2018-01-23T06:48:24.360Z,6.24
2018-01-23T06:49:24.280Z,6.21
2018-01-23T06:50:24.205Z,6.15
2018-01-23T06:51:24.119Z,6.14
2018-01-23T06:52:24.040Z,6.14
2018-01-23T06:53:23.960Z,6.08
2018-01-23T06:54:23.881Z,6.07
2018-01-23T06:55:23.803Z,6.08
2018-01-23T06:56:23.720Z,6.08
2018-01-23T06:57:23.641Z,6.04
2018-01-23T06:58:23.560Z,6.08
2018-01-23T06:59:23.481Z,6.00
2018-01-23T07:00:23.401Z,6.07
2018-01-23T07:01:23.322Z,6.10
2018-01-23T07:02:23.247Z,6.10
2018-01-23T07:03:23.162Z,6.08
2018-01-23T07:04:23.082Z,6.07
2018-01-23T07:05:23.003Z,6.03
2018-01-23T07:06:22.922Z,6.11
2018-01-23T07:07:22.847Z,6.18
2018-01-23T07:08:22.796Z,6.11
2018-01-23T07:09:22.690Z,6.04
2018-01-23T07:10:22.603Z,6.13
2018-01-23T07:11:22.525Z,6.06
2018-01-23T07:12:22.444Z,6.11
2018-01-23T07:13:22.365Z,6.06
2018-01-23T07:14:22.290Z,6.04
2018-01-23T07:15:22.205Z,6.03
2018-01-23T07:16:22.125Z,6.14
2018-01-23T07:17:22.045Z,6.18
2018-01-23T07:18:21.965Z,6.07
2018-01-23T07:19:21.885Z,6.10
2018-01-23T07:20:21.806Z,6.21
2018-01-23T07:21:21.726Z,6.24
2018-01-23T07:22:21.646Z,6.11
2018-01-23T07:23:21.567Z,6.04
2018-01-23T07:24:21.502Z,6.07
2018-01-23T07:25:21.411Z,6.08
2018-01-23T07:26:21.331Z,6.07
2018-01-23T07:27:21.248Z,6.13
2018-01-23T07:28:21.170Z,6.07
2018-01-23T07:29:21.095Z,5.99
2018-01-23T07:30:21.011Z,5.95
2018-01-23T07:31:20.930Z,5.96
2018-01-23T07:32:20.853Z,5.95
2018-01-23T07:33:20.771Z,5.96
2018-01-23T07:34:20.690Z,5.97
2018-01-23T07:35:20.611Z,5.99
2018-01-23T07:36:20.531Z,5.99
2018-01-23T07:37:20.452Z,5.99
2018-01-23T07:38:20.371Z,6.03
2018-01-23T07:39:20.292Z,6.10
2018-01-23T07:40:20.212Z,6.08
2018-01-23T07:41:20.133Z,6.14
2018-01-23T07:42:20.053Z,6.21
2018-01-23T07:43:19.974Z,6.33
2018-01-23T07:44:19.895Z,6.29
2018-01-23T07:45:19.816Z,6.33
2018-01-23T07:46:19.735Z,6.32
2018-01-23T07:47:19.655Z,6.42
2018-01-23T07:48:19.578Z,6.32
2018-01-23T07:49:19.499Z,6.21
2018-01-23T07:50:19.417Z,6.32
2018-01-23T07:51:19.337Z,6.30
2018-01-23T07:52:19.258Z,6.33
2018-01-23T07:53:19.199Z,6.24
2018-01-23T07:54:19.096Z,6.41
2018-01-23T07:55:19.018Z,6.36
2018-01-23T07:56:18.939Z,6.30
2018-01-23T07:57:18.860Z,6.33
2018-01-23T07:58:18.784Z,6.41
2018-01-23T07:59:18.700Z,6.39
2018-01-23T08:00:18.621Z,6.39
2018-01-23T08:01:18.542Z,6.36
2018-01-23T08:02:18.461Z,6.44
2018-01-23T08:03:18.383Z,6.50
2018-01-23T08:04:18.303Z,6.54
2018-01-23T08:05:18.223Z,6.54
2018-01-23T08:06:18.144Z,6.50
2018-01-23T08:07:18.064Z,6.51
2018-01-23T08:08:17.985Z,6.50
2018-01-23T08:09:17.907Z,6.51
2018-01-23T08:10:17.826Z,6.51
2018-01-23T08:11:17.746Z,6.55
2018-01-23T08:12:17.674Z,6.52
2018-01-23T08:13:17.589Z,6.55
2018-01-23T08:14:17.508Z,6.54
2018-01-23T08:15:17.429Z,6.51
2018-01-23T08:16:17.350Z,6.55
2018-01-23T08:17:17.270Z,6.57
2018-01-23T08:18:17.190Z,6.51
2018-01-23T08:19:17.111Z,6.54
2018-01-23T08:20:17.032Z,6.60
2018-01-23T08:21:16.953Z,6.57
2018-01-23T08:22:16.873Z,6.52
2018-01-23T08:23:16.794Z,6.50
2018-01-23T08:24:16.714Z,6.55
2018-01-23T08:25:16.637Z,6.55
2018-01-23T08:26:16.555Z,6.59
2018-01-23T08:27:16.476Z,6.63
2018-01-23T08:28:16.399Z,6.60
2018-01-23T08:29:16.316Z,6.66
2018-01-23T08:30:16.239Z,6.66
2018-01-23T08:31:16.158Z,6.63
2018-01-23T08:32:16.079Z,6.68
2018-01-23T08:33:15.999Z,6.62
2018-01-23T08:34:15.918Z,6.63
2018-01-23T08:35:15.840Z,6.66
2018-01-23T08:36:15.760Z,6.75
2018-01-23T08:37:15.682Z,6.80
2018-01-23T08:38:15.601Z,6.72
2018-01-23T08:39:15.522Z,6.69
2018-01-23T08:40:15.442Z,6.73
2018-01-23T08:41:15.364Z,6.75
2018-01-23T08:42:15.283Z,6.68
2018-01-23T08:43:15.204Z,6.81
2018-01-23T08:44:15.124Z,6.69
2018-01-23T08:45:15.045Z,6.73
2018-01-23T08:46:14.965Z,6.73
2018-01-23T08:47:14.886Z,6.69
2018-01-23T08:48:14.806Z,6.76
2018-01-23T08:49:14.726Z,6.75
2018-01-23T08:50:14.647Z,6.75
2018-01-23T08:51:14.567Z,6.83
2018-01-23T08:52:14.489Z,6.75
2018-01-23T08:53:14.416Z,6.84
2018-01-23T08:54:14.329Z,6.83
2018-01-23T08:55:14.250Z,6.88
2018-01-23T08:56:14.170Z,6.87
2018-01-23T08:57:14.092Z,6.87
2018-01-23T08:58:14.012Z,6.96
2018-01-23T08:59:13.933Z,6.91
2018-01-23T09:00:13.854Z,6.88
2018-01-23T09:01:13.775Z,6.90
2018-01-23T09:02:13.694Z,6.88
2018-01-23T09:03:13.616Z,6.83
2018-01-23T09:04:13.538Z,6.84
2018-01-23T09:05:13.457Z,6.91
2018-01-23T09:06:13.377Z,6.93
2018-01-23T09:07:13.298Z,6.88
2018-01-23T09:08:13.219Z,6.87
2018-01-23T09:09:13.141Z,6.91
2018-01-23T09:10:13.061Z,6.87
2018-01-23T09:11:12.982Z,6.93
2018-01-23T09:12:12.902Z,6.81
2018-01-23T09:13:12.824Z,6.91
2018-01-23T09:14:12.744Z,6.90
2018-01-23T09:15:12.664Z,6.93
2018-01-23T09:16:12.586Z,6.94
2018-01-23T09:17:12.506Z,6.90
2018-01-23T09:18:12.427Z,6.91
2018-01-23T09:19:12.348Z,6.91
2018-01-23T09:20:12.269Z,6.93
2018-01-23T09:21:12.190Z,7.01
2018-01-23T09:22:12.110Z,6.90
2018-01-23T09:23:12.031Z,6.91
2018-01-23T09:24:11.952Z,7.03
2018-01-23T09:25:11.872Z,6.96
2018-01-23T09:26:11.817Z,6.94
2018-01-23T09:27:11.713Z,6.96
2018-01-23T09:28:11.636Z,6.98
2018-01-23T09:29:11.556Z,6.93
2018-01-23T09:30:11.475Z,7.01
2018-01-23T09:31:11.395Z,7.02
2018-01-23T09:32:11.317Z,6.99
2018-01-23T09:33:11.238Z,7.02
2018-01-23T09:34:11.157Z,7.01
2018-01-23T09:35:11.078Z,7.03
2018-01-23T09:36:10.999Z,7.03
2018-01-23T09:37:10.920Z,7.09
2018-01-23T09:38:10.840Z,7.03
2018-01-23T09:39:10.761Z,7.17
2018-01-23T09:40:10.682Z,7.11
2018-01-23T09:41:10.603Z,7.17
2018-01-23T09:42:10.523Z,7.16
2018-01-23T09:43:10.444Z,7.08
2018-01-23T09:44:10.365Z,7.09
2018-01-23T09:45:10.287Z,7.17
2018-01-23T09:46:10.207Z,7.12
2018-01-23T09:47:10.127Z,7.16
2018-01-23T09:48:10.049Z,7.19
2018-01-23T09:49:09.969Z,7.19
2018-01-23T09:50:09.889Z,7.30
2018-01-23T09:51:09.819Z,7.30
2018-01-23T09:52:09.732Z,7.34
2018-01-23T09:53:09.654Z,7.35
2018-01-23T09:54:09.577Z,7.34
2018-01-23T09:55:09.495Z,7.34
2018-01-23T09:56:09.416Z,7.38
2018-01-23T09:57:09.338Z,7.30
2018-01-23T09:58:09.259Z,7.34
2018-01-23T09:59:09.179Z,7.37
2018-01-23T10:00:09.100Z,7.38
2018-01-23T10:01:09.021Z,7.37
2018-01-23T10:02:08.942Z,7.34
2018-01-23T10:03:08.863Z,7.34
2018-01-23T10:04:08.785Z,7.41
2018-01-23T10:05:08.706Z,7.47
2018-01-23T10:06:08.632Z,7.37
2018-01-23T10:07:08.548Z,7.41
2018-01-23T10:08:08.469Z,7.56
2018-01-23T10:09:08.391Z,7.52
2018-01-23T10:10:08.311Z,7.56
2018-01-23T10:11:08.233Z,7.53
2018-01-23T10:12:08.155Z,7.49
2018-01-23T10:13:08.132Z,7.53
2018-01-23T10:14:07.996Z,7.60
2018-01-23T10:15:07.918Z,7.64
2018-01-23T10:16:07.840Z,7.62
2018-01-23T10:17:07.761Z,7.57
2018-01-23T10:18:07.682Z,7.57
2018-01-23T10:19:07.603Z,7.59
2018-01-23T10:20:07.525Z,7.68
2018-01-23T10:21:07.447Z,7.59
2018-01-23T10:22:07.371Z,7.63
2018-01-23T10:23:07.290Z,7.57
2018-01-23T10:24:07.212Z,7.60
2018-01-23T10:25:07.134Z,7.68
2018-01-23T10:26:07.055Z,7.70
2018-01-23T10:27:06.977Z,7.81
2018-01-23T10:28:06.898Z,7.76
2018-01-23T10:29:06.820Z,7.68
2018-01-23T10:30:06.742Z,7.75
2018-01-23T10:31:06.662Z,7.73
2018-01-23T10:32:06.584Z,7.78
2018-01-23T10:33:06.507Z,7.78
2018-01-23T10:34:06.427Z,7.88
2018-01-23T10:35:06.349Z,7.83
2018-01-23T10:36:06.272Z,7.73
2018-01-23T10:37:06.194Z,7.68
2018-01-23T10:38:06.114Z,7.85
2018-01-23T10:39:06.036Z,7.86
2018-01-23T10:40:05.958Z,7.75
2018-01-23T10:41:05.880Z,7.86
2018-01-23T10:42:05.801Z,7.76
2018-01-23T10:43:05.723Z,7.88
2018-01-23T10:44:05.648Z,7.88
2018-01-23T10:45:05.567Z,7.90
2018-01-23T10:46:05.490Z,7.97
2018-01-23T10:47:05.410Z,8.04
2018-01-23T10:48:05.334Z,8.04
2018-01-23T10:49:05.255Z,8.06
2018-01-23T10:50:05.177Z,8.00
2018-01-23T10:51:05.099Z,8.01
2018-01-23T10:52:05.022Z,8.00
2018-01-23T10:53:04.944Z,7.99
2018-01-23T10:54:04.865Z,8.00
2018-01-23T10:55:04.787Z,7.94
2018-01-23T10:56:04.710Z,7.83
2018-01-23T10:57:04.633Z,7.83
2018-01-23T10:58:04.558Z,7.97
2018-01-23T10:59:04.475Z,7.85
2018-01-23T11:00:04.399Z,7.94
2018-01-23T11:01:04.322Z,7.90
2018-01-23T11:02:04.242Z,7.88
2018-01-23T11:03:04.165Z,7.97
2018-01-23T11:04:04.087Z,8.11
2018-01-23T11:05:04.012Z,8.01
2018-01-23T11:06:03.932Z,8.04
2018-01-23T11:07:03.853Z,8.00
2018-01-23T11:08:03.776Z,7.88
2018-01-23T11:09:03.700Z,7.88
2018-01-23T11:10:03.619Z,7.93
2018-01-23T11:11:03.542Z,7.99
2018-01-23T11:12:03.465Z,8.06
2018-01-23T11:13:03.387Z,8.15
2018-01-23T11:14:03.308Z,8.07
2018-01-23T11:15:03.231Z,8.11
2018-01-23T11:16:03.153Z,8.09
2018-01-23T11:17:03.077Z,8.22
2018-01-23T11:18:02.997Z,8.25
2018-01-23T11:19:02.920Z,8.21
2018-01-23T11:20:02.843Z,8.18
2018-01-23T11:21:02.765Z,8.19
2018-01-23T11:22:02.687Z,8.21
2018-01-23T11:23:02.609Z,8.37
2018-01-23T11:24:02.533Z,8.32
2018-01-23T11:25:02.455Z,8.34
2018-01-23T11:26:02.376Z,8.36
2018-01-23T11:27:02.299Z,8.39
2018-01-23T11:28:02.222Z,8.43
2018-01-23T11:29:02.145Z,8.33
2018-01-23T11:30:02.067Z,8.29
2018-01-23T11:31:01.992Z,8.21
2018-01-23T11:32:01.916Z,8.21
2018-01-23T11:33:01.836Z,8.18
2018-01-23T11:34:01.757Z,8.14
2018-01-23T11:35:01.680Z,8.17
2018-01-23T11:36:01.645Z,8.22
2018-01-23T11:37:01.526Z,8.29
2018-01-23T11:38:01.448Z,8.24
2018-01-23T11:39:01.370Z,8.14
2018-01-23T11:40:01.295Z,8.18
2018-01-23T11:41:01.219Z,8.30
2018-01-23T11:42:01.139Z,8.21
2018-01-23T11:43:01.061Z,8.21
2018-01-23T11:44:00.986Z,8.19
2018-01-23T11:45:00.907Z,8.22
2018-01-23T11:46:00.829Z,8.22
2018-01-23T11:47:00.757Z,8.19
2018-01-23T11:48:00.673Z,8.21
2018-01-23T11:49:00.597Z,8.15
2018-01-23T11:50:00.518Z,8.29
2018-01-23T11:51:00.441Z,8.30
2018-01-23T11:52:00.363Z,8.22
2018-01-23T11:53:00.286Z,8.22
2018-01-23T11:54:00.208Z,8.27
2018-01-23T11:55:00.131Z,8.32
2018-01-23T11:56:00.059Z,8.30
2018-01-23T11:56:59.982Z,8.30
2018-01-23T11:57:59.899Z,8.32
2018-01-23T11:58:59.822Z,8.32
2018-01-23T11:59:59.744Z,8.33
2018-01-23T12:00:59.668Z,8.40
2018-01-23T12:01:59.590Z,8.29
2018-01-23T12:02:59.516Z,8.18
2018-01-23T12:03:59.436Z,8.33
2018-01-23T12:04:59.358Z,8.25
2018-01-23T12:05:59.281Z,8.24
2018-01-23T12:06:59.204Z,8.32
2018-01-23T12:07:59.128Z,8.27
2018-01-23T12:08:59.049Z,8.22
2018-01-23T12:09:58.971Z,8.19
2018-01-23T12:10:58.894Z,8.21
2018-01-23T12:11:58.817Z,8.19
2018-01-23T12:12:58.740Z,8.25
2018-01-23T12:13:58.662Z,8.30
2018-01-23T12:14:58.584Z,8.22
2018-01-23T12:15:58.507Z,8.18
2018-01-23T12:16:58.430Z,8.17
2018-01-23T12:17:58.351Z,8.18
2018-01-23T12:18:58.274Z,8.21
2018-01-23T12:19:58.197Z,8.21
2018-01-23T12:20:58.119Z,8.21
2018-01-23T12:21:58.041Z,8.22
2018-01-23T12:22:57.964Z,8.15
2018-01-23T12:23:57.887Z,8.29
2018-01-23T12:24:57.810Z,8.21
2018-01-23T12:25:57.730Z,8.14
2018-01-23T12:26:57.652Z,8.15
2018-01-23T12:27:57.575Z,8.15
2018-01-23T12:28:57.498Z,8.22
2018-01-23T12:29:57.419Z,8.30
2018-01-23T12:30:57.342Z,8.15
2018-01-23T12:31:57.264Z,8.25
2018-01-23T12:32:57.230Z,8.15
2018-01-23T12:33:57.108Z,8.12
2018-01-23T12:34:57.032Z,8.06
2018-01-23T12:35:56.954Z,8.04
2018-01-23T12:36:56.876Z,8.21
2018-01-23T12:37:56.803Z,8.11
2018-01-23T12:38:56.720Z,8.11
2018-01-23T12:39:56.792Z,8.19
2018-01-23T12:40:56.565Z,8.17
2018-01-23T12:41:56.488Z,8.30
2018-01-23T12:42:56.409Z,8.30
2018-01-23T12:43:56.330Z,8.25
2018-01-23T12:44:56.254Z,8.22
2018-01-23T12:45:56.175Z,8.27
2018-01-23T12:46:56.098Z,8.21
2018-01-23T12:47:56.019Z,8.21
2018-01-23T12:48:55.943Z,8.25
2018-01-23T12:49:55.863Z,8.22
2018-01-23T12:50:55.786Z,8.22
2018-01-23T12:51:55.713Z,8.29
2018-01-23T12:52:55.631Z,8.24
2018-01-23T12:53:55.553Z,8.24
2018-01-23T12:54:55.475Z,8.22
2018-01-23T12:55:55.398Z,8.29
2018-01-23T12:56:55.321Z,8.22
2018-01-23T12:57:55.242Z,8.29
2018-01-23T12:58:55.164Z,8.34
2018-01-23T12:59:55.087Z,8.25
2018-01-23T13:00:55.010Z,8.25
2018-01-23T13:01:54.932Z,8.25
2018-01-23T13:02:54.859Z,8.22
2018-01-23T13:03:54.781Z,8.15
2018-01-23T13:04:54.701Z,8.29
2018-01-23T13:05:54.622Z,8.21
2018-01-23T13:06:54.544Z,8.21
2018-01-23T13:07:54.467Z,8.19
2018-01-23T13:08:54.390Z,8.24
2018-01-23T13:09:54.311Z,8.27
2018-01-23T13:10:54.234Z,8.36
2018-01-23T13:11:54.157Z,8.39
2018-01-23T13:12:54.080Z,8.32
2018-01-23T13:13:54.002Z,8.24
2018-01-23T13:14:53.925Z,8.25
2018-01-23T13:15:53.847Z,8.29
2018-01-23T13:16:53.777Z,8.29
2018-01-23T13:17:53.694Z,8.33